Time;durP1;ratioP1;P1;durP2;ratioP2;P2;SDS_P1;SDS_P2;PMS_P1;PMS_P2;Temp;Humidity;BMP_temperature;BMP_pressure;BME280_temperature;BME280_humidity;BME280_pressure;Samples;Min_cycle;Max_cycle;Signal;HPM_P1;HPM_P2
2021/11/06 00:00:55;;;;;;;0.28;0.28;;;6.30;99.90;;;;;;5022246;28;20013;-92
2021/11/06 00:03:20;;;;;;;0.32;0.32;;;6.40;99.90;;;;;;5040656;28;20089;-92
2021/11/06 00:05:46;;;;;;;0.20;0.20;;;6.40;99.90;;;;;;5022820;28;20039;-92
2021/11/06 00:08:12;;;;;;;0.30;0.30;;;6.20;99.90;;;;;;5017675;28;20022;-92
2021/11/06 00:10:38;;;;;;;0.50;0.50;;;6.20;99.90;;;;;;5020122;28;20112;-92
2021/11/06 00:13:04;;;;;;;0.47;0.47;;;6.30;99.90;;;;;;5017285;28;20064;-92
2021/11/06 00:15:30;;;;;;;0.20;0.20;;;6.30;99.90;;;;;;5033232;28;20084;-92
2021/11/06 00:17:55;;;;;;;0.20;0.20;;;6.30;99.90;;;;;;5016510;28;20040;-92
2021/11/06 00:20:21;;;;;;;0.30;0.30;;;6.40;99.90;;;;;;5020742;28;20410;-92
2021/11/06 00:22:47;;;;;;;0.20;0.20;;;6.40;99.90;;;;;;5020903;28;20093;-92
2021/11/06 00:25:13;;;;;;;0.30;0.30;;;6.40;99.90;;;;;;5018358;28;20064;-92
2021/11/06 00:27:40;;;;;;;0.30;0.30;;;6.30;99.90;;;;;;5016989;28;20027;-92
2021/11/06 00:30:09;;;;;;;0.63;0.63;;;6.20;99.90;;;;;;5017144;28;20089;-92
2021/11/06 00:32:35;;;;;;;0.20;0.20;;;6.00;99.90;;;;;;5017107;28;20033;-92
2021/11/06 00:35:01;;;;;;;0.30;0.30;;;6.00;99.90;;;;;;5016732;28;20029;-92
2021/11/06 00:37:27;;;;;;;0.20;0.20;;;6.00;99.90;;;;;;5016223;28;20034;-92
2021/11/06 00:39:53;;;;;;;0.28;0.28;;;6.00;99.90;;;;;;5016348;28;20025;-93
2021/11/06 00:42:20;;;;;;;0.20;0.20;;;6.00;99.90;;;;;;5016427;28;20033;-92
2021/11/06 00:44:46;;;;;;;0.30;0.30;;;6.00;99.90;;;;;;5016279;28;20052;-92
2021/11/06 00:47:12;;;;;;;0.20;0.20;;;6.20;99.90;;;;;;5015956;28;20026;-92
2021/11/06 00:49:39;;;;;;;0.20;0.20;;;6.40;99.90;;;;;;5019181;28;20026;-92
2021/11/06 00:52:06;;;;;;;0.20;0.20;;;6.30;99.90;;;;;;5020041;28;20060;-92
2021/11/06 00:54:32;;;;;;;0.30;0.30;;;6.40;99.90;;;;;;5019520;28;20479;-92
2021/11/06 00:56:57;;;;;;;0.20;0.20;;;6.30;99.90;;;;;;5019685;28;20040;-92
2021/11/06 00:59:23;;;;;;;1.25;0.85;;;6.30;99.90;;;;;;5019568;28;20026;-91
2021/11/06 01:01:51;;;;;;;0.30;0.30;;;6.20;99.90;;;;;;5019885;28;20476;-92
2021/11/06 01:04:17;;;;;;;0.40;0.40;;;6.00;99.90;;;;;;5020488;28;20089;-92
2021/11/06 01:06:43;;;;;;;4.97;1.02;;;6.00;99.90;;;;;;5020951;28;20022;-92
2021/11/06 01:09:09;;;;;;;0.30;0.30;;;6.00;99.90;;;;;;5019919;28;20084;-92
2021/11/06 01:11:35;;;;;;;0.20;0.20;;;6.00;99.90;;;;;;5019796;28;20025;-92
2021/11/06 01:14:01;;;;;;;0.30;0.30;;;6.10;99.90;;;;;;5019596;28;20029;-92
2021/11/06 01:16:27;;;;;;;0.20;0.20;;;6.10;99.90;;;;;;5036005;28;20124;-92
2021/11/06 01:18:53;;;;;;;0.20;0.20;;;6.10;99.90;;;;;;5019326;28;20075;-92
2021/11/06 01:21:19;;;;;;;0.68;0.68;;;6.10;99.90;;;;;;5020044;28;20124;-92
2021/11/06 01:23:45;;;;;;;0.20;0.20;;;6.10;99.90;;;;;;5020795;28;20033;-92
2021/11/06 01:26:11;;;;;;;0.20;0.20;;;6.10;99.90;;;;;;5021504;28;20171;-92
2021/11/06 01:28:37;;;;;;;0.28;0.28;;;6.00;99.90;;;;;;5020918;28;20021;-92
2021/11/06 01:31:02;;;;;;;0.20;0.20;;;5.90;99.90;;;;;;5020664;28;20033;-92
2021/11/06 01:33:28;;;;;;;1.13;1.13;;;5.70;99.90;;;;;;5020075;28;20036;-92
2021/11/06 01:35:54;;;;;;;18.13;13.13;;;5.80;99.90;;;;;;5019307;28;20037;-93
2021/11/06 01:38:20;;;;;;;0.63;0.63;;;5.80;99.90;;;;;;5019119;28;20113;-91
2021/11/06 01:40:46;;;;;;;0.30;0.30;;;5.80;99.90;;;;;;5020063;28;20048;-92
2021/11/06 01:43:13;;;;;;;0.20;0.20;;;5.80;99.90;;;;;;5020284;28;20482;-91
2021/11/06 01:45:39;;;;;;;0.30;0.30;;;5.70;99.90;;;;;;5019887;28;20029;-92
2021/11/06 01:48:05;;;;;;;0.25;0.25;;;5.80;99.90;;;;;;5019882;28;20029;-92
2021/11/06 01:50:31;;;;;;;0.20;0.20;;;5.90;99.90;;;;;;5020012;28;20073;-92
2021/11/06 01:52:57;;;;;;;0.20;0.20;;;6.00;99.90;;;;;;5018823;28;20029;-92
2021/11/06 01:55:23;;;;;;;1.92;1.83;;;6.10;99.90;;;;;;5019789;28;20030;-92
2021/11/06 01:57:50;;;;;;;1.60;1.02;;;6.00;99.90;;;;;;5019329;28;20079;-92
2021/11/06 02:00:28;;;;;;;0.30;0.30;;;5.90;99.90;;;;;;5018485;28;20109;-92
2021/11/06 02:02:54;;;;;;;0.22;0.22;;;5.80;99.90;;;;;;5020045;28;20085;-92
2021/11/06 02:05:19;;;;;;;0.30;0.30;;;5.50;99.90;;;;;;5020036;28;20103;-92
2021/11/06 02:07:46;;;;;;;1.17;1.08;;;5.40;99.90;;;;;;5019561;28;20040;-92
2021/11/06 02:10:12;;;;;;;19.02;17.38;;;5.30;99.90;;;;;;5019386;28;20057;-92
2021/11/06 02:12:39;;;;;;;0.20;0.20;;;5.20;99.90;;;;;;5019937;28;20025;-91
2021/11/06 02:15:09;;;;;;;0.25;0.25;;;5.30;99.90;;;;;;5019074;28;20518;-92
2021/11/06 02:17:35;;;;;;;0.28;0.28;;;5.30;99.90;;;;;;5035271;28;20033;-92
2021/11/06 02:20:01;;;;;;;0.73;0.73;;;5.30;99.90;;;;;;5021279;28;20028;-92
2021/11/06 02:22:30;;;;;;;0.30;0.30;;;5.30;99.90;;;;;;5025473;28;20053;-92
2021/11/06 02:24:57;;;;;;;0.30;0.30;;;5.40;99.90;;;;;;5019845;28;20025;-92
2021/11/06 02:27:23;;;;;;;0.25;0.25;;;5.40;99.90;;;;;;5020872;28;20037;-92
2021/11/06 02:29:49;;;;;;;0.20;0.20;;;5.60;99.90;;;;;;5020836;28;20500;-93
2021/11/06 02:32:15;;;;;;;0.25;0.25;;;5.60;99.90;;;;;;5020297;28;20487;-92
2021/11/06 02:34:41;;;;;;;0.30;0.30;;;5.60;99.90;;;;;;5020155;28;20505;-92
2021/11/06 02:37:07;;;;;;;0.38;0.38;;;5.60;99.90;;;;;;5018997;28;20021;-92
2021/11/06 02:39:33;;;;;;;0.30;0.30;;;5.80;99.90;;;;;;5018593;28;20029;-92
2021/11/06 02:42:02;;;;;;;0.20;0.20;;;5.90;99.90;;;;;;5018910;28;20085;-92
2021/11/06 02:44:27;;;;;;;0.20;0.20;;;5.70;99.90;;;;;;5019142;28;20442;-92
2021/11/06 02:46:53;;;;;;;0.20;0.20;;;5.60;99.90;;;;;;5019320;28;20026;-92
2021/11/06 02:49:19;;;;;;;0.30;0.30;;;5.70;99.90;;;;;;5019068;28;20032;-92
2021/11/06 02:51:45;;;;;;;0.20;0.20;;;5.70;99.90;;;;;;5018621;28;20391;-92
2021/11/06 02:54:10;;;;;;;0.20;0.20;;;5.70;99.90;;;;;;5018606;28;20034;-92
2021/11/06 02:56:36;;;;;;;0.25;0.25;;;5.60;99.90;;;;;;5018422;28;20040;-92
2021/11/06 02:59:02;;;;;;;8.57;1.63;;;5.40;99.90;;;;;;5018201;28;20028;-92
2021/11/06 03:01:28;;;;;;;0.28;0.28;;;5.40;99.90;;;;;;5018379;28;20549;-91
2021/11/06 03:03:54;;;;;;;0.30;0.30;;;5.30;99.90;;;;;;5018591;28;20025;-92
2021/11/06 03:06:20;;;;;;;0.20;0.20;;;5.10;99.90;;;;;;5019125;28;20029;-92
2021/11/06 03:08:45;;;;;;;0.20;0.20;;;5.30;99.90;;;;;;5018591;28;20482;-93
2021/11/06 03:11:11;;;;;;;0.20;0.20;;;5.30;99.90;;;;;;5017803;28;20112;-92
2021/11/06 03:13:38;;;;;;;0.20;0.20;;;5.30;99.90;;;;;;5018212;28;20029;-92
2021/11/06 03:16:07;;;;;;;0.20;0.20;;;5.30;99.90;;;;;;5017367;28;20064;-92
2021/11/06 03:18:34;;;;;;;0.20;0.20;;;5.30;99.90;;;;;;5065899;23;20046;-76
2021/11/06 03:20:59;;;;;;;0.30;0.30;;;5.20;99.90;;;;;;4972788;28;20490;-76
2021/11/06 03:23:27;;;;;;;0.30;0.30;;;5.20;99.90;;;;;;4974491;28;20027;-76
2021/11/06 03:25:57;;;;;;;0.20;0.20;;;5.10;99.90;;;;;;4972841;28;20501;-76
2021/11/06 03:28:23;;;;;;;0.63;0.63;;;5.10;99.90;;;;;;4989073;28;20502;-76
2021/11/06 03:30:50;;;;;;;0.25;0.25;;;5.10;99.90;;;;;;4974024;28;20034;-76
2021/11/06 03:33:16;;;;;;;0.30;0.30;;;5.10;99.90;;;;;;4972812;28;20027;-76
2021/11/06 03:35:42;;;;;;;0.20;0.20;;;5.00;99.90;;;;;;4974183;28;20482;-76
2021/11/06 03:38:08;;;;;;;0.22;0.22;;;4.90;99.90;;;;;;4973232;28;20041;-76
2021/11/06 03:40:34;;;;;;;0.20;0.20;;;4.90;99.90;;;;;;4974731;28;20471;-77
2021/11/06 03:43:00;;;;;;;0.30;0.30;;;4.80;99.90;;;;;;4972508;28;20034;-76
2021/11/06 03:45:26;;;;;;;0.50;0.50;;;4.90;99.90;;;;;;4974275;28;20549;-76
2021/11/06 03:47:52;;;;;;;0.20;0.20;;;4.90;99.90;;;;;;4973958;28;20059;-77
2021/11/06 03:50:18;;;;;;;0.20;0.20;;;5.00;99.90;;;;;;4973621;28;20038;-76
2021/11/06 03:52:43;;;;;;;0.50;0.50;;;5.00;99.90;;;;;;4973619;28;20063;-77
2021/11/06 03:55:10;;;;;;;0.30;0.30;;;5.00;99.90;;;;;;4972292;28;20034;-76
2021/11/06 03:57:36;;;;;;;0.25;0.25;;;4.90;99.90;;;;;;4955976;28;20038;-76
2021/11/06 04:00:11;;;;;;;0.30;0.30;;;4.80;99.90;;;;;;4973418;28;20035;-76
2021/11/06 04:02:37;;;;;;;0.20;0.20;;;4.60;99.90;;;;;;4973539;28;20034;-76
2021/11/06 04:05:03;;;;;;;0.30;0.30;;;4.50;99.90;;;;;;4972042;28;20030;-76
2021/11/06 04:07:30;;;;;;;0.20;0.20;;;4.60;99.90;;;;;;4973435;28;20386;-76
2021/11/06 04:09:56;;;;;;;0.20;0.20;;;4.60;99.90;;;;;;4972044;28;20406;-76
2021/11/06 04:12:21;;;;;;;0.20;0.20;;;4.70;99.90;;;;;;4972099;28;20390;-76
2021/11/06 04:14:47;;;;;;;0.20;0.20;;;4.70;99.90;;;;;;4973146;28;20047;-76
2021/11/06 04:17:13;;;;;;;0.28;0.28;;;4.70;99.90;;;;;;4971790;28;20545;-76
2021/11/06 04:19:39;;;;;;;0.20;0.20;;;4.60;99.90;;;;;;4955841;28;20026;-76
2021/11/06 04:22:04;;;;;;;0.22;0.22;;;4.60;99.90;;;;;;4972383;28;20031;-77
2021/11/06 04:24:31;;;;;;;0.30;0.30;;;4.60;99.90;;;;;;4971325;28;20525;-77
2021/11/06 04:26:57;;;;;;;0.30;0.30;;;4.70;99.90;;;;;;4955853;28;20173;-76
2021/11/06 04:29:22;;;;;;;0.30;0.30;;;4.70;99.90;;;;;;4955723;28;20117;-76
2021/11/06 04:31:48;;;;;;;0.30;0.30;;;4.70;99.90;;;;;;4971996;28;20122;-76
2021/11/06 04:34:15;;;;;;;0.60;0.60;;;4.60;99.90;;;;;;4971924;28;20074;-76
2021/11/06 04:36:41;;;;;;;0.30;0.30;;;4.50;99.90;;;;;;4971778;28;20505;-76
2021/11/06 04:39:07;;;;;;;0.30;0.30;;;4.30;99.90;;;;;;4971761;28;20035;-76
2021/11/06 04:41:32;;;;;;;0.20;0.20;;;4.20;99.90;;;;;;4972012;28;20027;-76
2021/11/06 04:43:58;;;;;;;0.30;0.30;;;4.50;99.90;;;;;;4971856;28;20383;-76
2021/11/06 04:46:25;;;;;;;8.60;3.65;;;4.60;99.90;;;;;;4971763;28;20074;-76
2021/11/06 04:48:50;;;;;;;0.30;0.30;;;4.50;99.90;;;;;;4971971;28;20033;-76
2021/11/06 04:51:16;;;;;;;0.20;0.20;;;4.50;99.90;;;;;;4973098;28;20026;-76
2021/11/06 04:53:42;;;;;;;0.30;0.30;;;4.60;99.90;;;;;;4955492;28;20119;-76
2021/11/06 04:56:08;;;;;;;0.30;0.30;;;4.40;99.90;;;;;;4971588;28;20034;-76
2021/11/06 04:58:34;;;;;;;0.30;0.30;;;4.50;99.90;;;;;;4972812;28;20031;-76
2021/11/06 05:00:59;;;;;;;0.55;0.55;;;4.60;99.90;;;;;;4972853;28;20031;-76
2021/11/06 05:03:25;;;;;;;0.20;0.20;;;4.60;99.90;;;;;;4955568;28;20034;-76
2021/11/06 05:05:51;;;;;;;0.22;0.22;;;4.60;99.90;;;;;;4972710;28;20027;-76
2021/11/06 05:08:16;;;;;;;0.30;0.30;;;4.60;99.90;;;;;;4972906;28;20062;-76
2021/11/06 05:10:42;;;;;;;0.22;0.22;;;4.40;99.90;;;;;;4971799;28;20105;-76
2021/11/06 05:13:08;;;;;;;0.30;0.30;;;4.40;99.90;;;;;;4972585;28;20035;-76
2021/11/06 05:15:34;;;;;;;0.30;0.30;;;4.40;99.90;;;;;;4971365;28;20386;-76
2021/11/06 05:18:00;;;;;;;0.30;0.30;;;4.40;99.90;;;;;;4955161;28;20030;-76
2021/11/06 05:20:26;;;;;;;0.20;0.20;;;4.50;99.90;;;;;;4971371;28;20502;-77
2021/11/06 05:22:52;;;;;;;0.30;0.30;;;4.40;99.90;;;;;;4971607;28;20062;-76
2021/11/06 05:25:17;;;;;;;0.30;0.30;;;4.30;99.90;;;;;;4971211;28;20125;-76
2021/11/06 05:27:43;;;;;;;2.03;1.92;;;4.20;99.90;;;;;;4971164;28;20027;-76
2021/11/06 05:30:11;;;;;;;0.30;0.30;;;4.20;99.90;;;;;;4971379;28;20030;-76
2021/11/06 05:32:37;;;;;;;0.30;0.30;;;4.30;99.90;;;;;;4972844;28;20030;-77
2021/11/06 05:35:05;;;;;;;0.40;0.40;;;4.40;99.90;;;;;;4974232;28;20035;-76
2021/11/06 05:37:31;;;;;;;0.40;0.40;;;4.30;99.90;;;;;;4974793;28;20023;-76
2021/11/06 05:39:57;;;;;;;0.30;0.30;;;4.40;99.90;;;;;;4976363;28;20019;-76
2021/11/06 05:42:23;;;;;;;0.30;0.30;;;4.20;99.90;;;;;;4976018;28;20023;-76
2021/11/06 05:44:48;;;;;;;0.30;0.30;;;4.20;99.90;;;;;;4975821;28;20030;-76
2021/11/06 05:47:15;;;;;;;0.30;0.30;;;4.20;99.90;;;;;;4974629;28;20102;-76
2021/11/06 05:49:40;;;;;;;0.30;0.30;;;4.10;99.90;;;;;;4974497;28;20505;-77
2021/11/06 05:52:06;;;;;;;0.30;0.30;;;4.10;99.90;;;;;;4976089;28;20031;-76
2021/11/06 05:54:32;;;;;;;0.30;0.30;;;4.10;99.90;;;;;;4958336;28;20390;-76
2021/11/06 05:56:58;;;;;;;0.30;0.30;;;4.00;99.90;;;;;;4974563;28;20549;-76
2021/11/06 05:59:23;;;;;;;0.40;0.40;;;4.00;99.90;;;;;;4958492;28;20030;-77
2021/11/06 06:01:50;;;;;;;0.30;0.30;;;4.10;99.90;;;;;;4958523;28;20030;-76
2021/11/06 06:04:15;;;;;;;0.30;0.30;;;4.10;99.90;;;;;;4975748;28;20418;-76
2021/11/06 06:06:41;;;;;;;0.30;0.30;;;4.10;99.90;;;;;;4976114;28;20023;-77
2021/11/06 06:09:07;;;;;;;0.30;0.30;;;4.10;99.90;;;;;;4974382;28;20031;-78
2021/11/06 06:11:34;;;;;;;0.28;0.28;;;4.00;99.90;;;;;;4974415;28;20085;-77
2021/11/06 06:13:59;;;;;;;0.30;0.30;;;4.10;99.90;;;;;;4958142;28;20117;-77
2021/11/06 06:16:26;;;;;;;0.30;0.30;;;4.10;99.90;;;;;;4975058;28;20089;-77
2021/11/06 06:18:52;;;;;;;0.30;0.30;;;4.10;99.90;;;;;;4994575;28;20113;-77
2021/11/06 06:21:17;;;;;;;0.30;0.30;;;4.10;99.90;;;;;;4984268;28;20501;-78
2021/11/06 06:23:43;;;;;;;0.30;0.30;;;4.00;99.90;;;;;;4977285;28;20042;-79
2021/11/06 06:26:09;;;;;;;0.30;0.30;;;3.90;99.90;;;;;;4977104;28;20035;-78
2021/11/06 06:28:35;;;;;;;0.30;0.30;;;3.90;99.90;;;;;;4974988;28;20042;-76
2021/11/06 06:31:01;;;;;;;0.40;0.40;;;3.80;99.90;;;;;;4975294;28;20031;-76
2021/11/06 06:33:27;;;;;;;0.40;0.40;;;3.70;99.90;;;;;;4977958;28;20463;-75
2021/11/06 06:35:53;;;;;;;0.98;0.98;;;3.80;99.90;;;;;;4992349;28;20094;-76
2021/11/06 06:38:19;;;;;;;0.30;0.30;;;3.90;99.90;;;;;;4973672;28;20106;-76
2021/11/06 06:40:45;;;;;;;0.30;0.30;;;3.90;99.90;;;;;;4974893;28;20034;-76
2021/11/06 06:43:10;;;;;;;0.30;0.30;;;3.90;99.90;;;;;;4989910;28;20074;-76
2021/11/06 06:45:36;;;;;;;0.45;0.45;;;4.00;99.90;;;;;;4974612;28;20019;-75
2021/11/06 06:48:02;;;;;;;0.38;0.38;;;4.00;99.90;;;;;;4973198;28;20103;-76
2021/11/06 06:50:28;;;;;;;0.40;0.40;;;4.10;99.90;;;;;;4979735;28;20022;-78
2021/11/06 06:52:54;;;;;;;0.30;0.30;;;4.10;99.90;;;;;;4993972;28;20113;-78
2021/11/06 06:55:20;;;;;;;0.30;0.30;;;4.00;99.90;;;;;;4992811;28;20113;-79
2021/11/06 06:57:46;;;;;;;0.50;0.50;;;4.00;99.90;;;;;;4993015;28;20022;-76
2021/11/06 07:00:13;;;;;;;0.40;0.40;;;3.80;99.90;;;;;;4992736;28;20026;-75
2021/11/06 07:02:40;;;;;;;0.50;0.50;;;3.70;99.90;;;;;;4994038;28;20129;-75
2021/11/06 07:05:06;;;;;;;2.08;0.30;;;3.80;99.90;;;;;;4992607;28;20065;-76
2021/11/06 07:07:32;;;;;;;0.40;0.40;;;3.80;99.90;;;;;;4991632;28;20023;-76
2021/11/06 07:09:57;;;;;;;0.30;0.30;;;3.80;99.90;;;;;;4993495;28;20084;-78
2021/11/06 07:12:26;;;;;;;0.30;0.30;;;3.80;99.90;;;;;;4993605;28;20033;-78
2021/11/06 07:14:53;;;;;;;0.30;0.30;;;3.90;99.90;;;;;;4991306;28;20022;-76
2021/11/06 07:17:19;;;;;;;0.30;0.30;;;3.80;99.90;;;;;;4991829;28;20034;-77
2021/11/06 07:19:45;;;;;;;0.40;0.40;;;3.70;99.90;;;;;;4992601;28;20030;-76
2021/11/06 07:22:11;;;;;;;1.30;1.30;;;3.70;99.90;;;;;;4992503;28;20026;-77
2021/11/06 07:24:36;;;;;;;0.30;0.30;;;3.70;99.90;;;;;;4992288;28;20478;-75
2021/11/06 07:27:05;;;;;;;0.30;0.30;;;3.70;99.90;;;;;;4993820;28;20226;-75
2021/11/06 07:29:32;;;;;;;0.30;0.30;;;3.90;99.90;;;;;;4992320;28;20108;-76
2021/11/06 07:31:58;;;;;;;0.38;0.38;;;4.00;99.90;;;;;;4993107;28;20111;-76
2021/11/06 07:34:23;;;;;;;0.30;0.30;;;4.10;99.90;;;;;;4992926;28;20482;-76
2021/11/06 07:36:50;;;;;;;0.55;0.55;;;4.20;99.90;;;;;;4992427;28;20026;-76
2021/11/06 07:39:16;;;;;;;1.45;1.38;;;4.30;99.90;;;;;;5008136;28;20026;-76
2021/11/06 07:41:43;;;;;;;0.30;0.30;;;4.30;99.90;;;;;;4993394;28;20053;-76
2021/11/06 07:44:11;;;;;;;0.30;0.30;;;4.50;99.90;;;;;;4993310;28;20034;-76
2021/11/06 07:46:37;;;;;;;0.20;0.20;;;4.40;99.90;;;;;;4992991;28;20157;-76
2021/11/06 07:49:03;;;;;;;0.30;0.30;;;4.50;99.90;;;;;;4993301;28;20404;-76
2021/11/06 07:51:29;;;;;;;0.30;0.30;;;4.60;99.90;;;;;;4993052;28;20105;-76
2021/11/06 07:53:55;;;;;;;0.30;0.30;;;4.80;99.90;;;;;;5008133;28;20026;-76
2021/11/06 07:56:21;;;;;;;0.30;0.30;;;4.90;99.90;;;;;;4991685;28;20375;-76
2021/11/06 07:58:47;;;;;;;0.40;0.40;;;5.10;99.90;;;;;;4970887;28;20502;-76
2021/11/06 08:01:12;;;;;;;2.50;0.57;;;5.20;99.90;;;;;;4955975;28;20049;-76
2021/11/06 08:03:38;;;;;;;0.30;0.30;;;5.10;99.90;;;;;;4972265;28;20030;-75
2021/11/06 08:06:05;;;;;;;0.20;0.20;;;5.00;99.90;;;;;;4972210;28;20098;-77
2021/11/06 08:08:31;;;;;;;0.30;0.30;;;4.90;99.90;;;;;;4973481;28;20023;-76
2021/11/06 08:10:57;;;;;;;0.30;0.30;;;5.00;99.90;;;;;;5004433;28;20036;-76
2021/11/06 08:13:24;;;;;;;0.30;0.30;;;5.10;99.90;;;;;;4972256;28;20027;-76
2021/11/06 08:15:49;;;;;;;0.30;0.30;;;5.10;99.90;;;;;;4971854;28;20054;-75
2021/11/06 08:18:15;;;;;;;0.20;0.20;;;5.10;99.90;;;;;;4971838;28;20532;-76
2021/11/06 08:20:41;;;;;;;0.25;0.25;;;5.40;99.90;;;;;;4973210;28;20053;-75
2021/11/06 08:23:08;;;;;;;0.20;0.20;;;5.60;99.90;;;;;;4973295;28;20027;-76
2021/11/06 08:25:34;;;;;;;0.30;0.30;;;5.50;99.90;;;;;;4955883;28;20023;-76
2021/11/06 08:28:00;;;;;;;0.30;0.30;;;5.70;99.90;;;;;;4971921;28;20072;-76
2021/11/06 08:30:27;;;;;;;0.20;0.20;;;5.70;99.90;;;;;;4973129;28;20442;-78
2021/11/06 08:32:54;;;;;;;0.20;0.20;;;5.90;99.90;;;;;;4973265;28;20027;-79
2021/11/06 08:35:22;;;;;;;0.20;0.20;;;5.90;99.90;;;;;;4956709;28;20121;-79
2021/11/06 08:37:48;;;;;;;0.25;0.25;;;5.90;99.90;;;;;;4974338;28;20023;-79
2021/11/06 08:40:14;;;;;;;0.30;0.30;;;6.10;99.90;;;;;;4972646;28;20492;-76
2021/11/06 08:42:41;;;;;;;0.38;0.38;;;6.10;99.90;;;;;;4957072;28;20026;-76
2021/11/06 08:45:10;;;;;;;0.20;0.20;;;6.10;99.90;;;;;;4972701;28;20506;-76
2021/11/06 08:47:37;;;;;;;0.20;0.20;;;6.20;99.90;;;;;;4972959;28;20085;-76
2021/11/06 08:50:08;;;;;;;0.20;0.20;;;6.40;99.90;;;;;;4973497;28;20026;-76
2021/11/06 08:52:35;;;;;;;0.22;0.22;;;6.50;99.90;;;;;;4988303;28;20486;-76
2021/11/06 08:55:01;;;;;;;0.40;0.40;;;6.70;99.90;;;;;;4988412;28;20027;-76
2021/11/06 08:57:27;;;;;;;0.68;0.68;;;6.90;99.90;;;;;;4973791;28;20078;-76
2021/11/06 08:59:56;;;;;;;0.30;0.30;;;7.00;99.90;;;;;;4972959;28;20023;-76
2021/11/06 09:02:22;;;;;;;0.30;0.30;;;7.20;99.90;;;;;;5004258;28;20101;-76
2021/11/06 09:04:49;;;;;;;0.20;0.20;;;7.30;99.90;;;;;;4971393;28;20122;-76
2021/11/06 09:07:16;;;;;;;0.20;0.20;;;7.40;99.90;;;;;;4971337;28;20077;-77
2021/11/06 09:09:43;;;;;;;0.68;0.68;;;7.60;99.90;;;;;;4974185;28;20081;-76
2021/11/06 09:12:10;;;;;;;0.20;0.20;;;7.70;99.90;;;;;;4976724;28;20089;-75
2021/11/06 09:14:35;;;;;;;0.20;0.20;;;7.80;99.90;;;;;;4976514;28;20030;-76
2021/11/06 09:17:01;;;;;;;0.20;0.20;;;8.00;99.90;;;;;;4976428;28;20030;-75
2021/11/06 09:19:27;;;;;;;0.30;0.30;;;8.10;99.90;;;;;;4976585;28;20395;-76
2021/11/06 09:21:53;;;;;;;0.30;0.30;;;8.30;99.90;;;;;;5007707;28;20019;-76
2021/11/06 09:24:19;;;;;;;0.30;0.30;;;8.40;99.90;;;;;;4976222;28;20112;-75
2021/11/06 09:26:46;;;;;;;0.50;0.50;;;8.50;99.90;;;;;;4976304;28;20034;-76
2021/11/06 09:29:14;;;;;;;0.47;0.47;;;8.40;99.90;;;;;;4976031;28;20502;-75
2021/11/06 09:31:42;;;;;;;0.95;0.95;;;8.70;99.90;;;;;;4975031;28;20026;-75
2021/11/06 09:34:09;;;;;;;0.82;0.82;;;9.00;99.90;;;;;;4991057;28;20082;-75
2021/11/06 09:36:36;;;;;;;0.28;0.28;;;9.50;99.90;;;;;;4976036;28;20026;-76
2021/11/06 09:39:07;;;;;;;0.80;0.80;;;10.10;98.90;;;;;;5007440;28;20023;-75
2021/11/06 09:41:34;;;;;;;0.10;0.10;;;10.70;95.70;;;;;;4976058;28;20026;-78
2021/11/06 09:44:00;;;;;;;0.20;0.20;;;11.40;91.60;;;;;;4975916;28;20037;-76
2021/11/06 09:46:26;;;;;;;1.55;1.45;;;11.90;89.60;;;;;;5006665;28;20027;-76
2021/11/06 09:48:53;;;;;;;3.22;3.03;;;12.40;86.90;;;;;;4974688;28;20450;-78
2021/11/06 09:51:20;;;;;;;0.38;0.35;;;12.90;84.00;;;;;;4974996;28;20027;-77
2021/11/06 09:53:48;;;;;;;0.10;0.10;;;13.00;82.70;;;;;;5006986;28;20019;-77
2021/11/06 09:56:20;;;;;;;1.55;1.05;;;13.00;79.90;;;;;;4975663;28;20058;-77
2021/11/06 09:58:46;;;;;;;0.22;0.22;;;13.50;78.60;;;;;;4975534;28;20031;-77
2021/11/06 10:01:13;;;;;;;0.10;0.10;;;14.00;76.20;;;;;;4975581;28;20035;-75
2021/11/06 10:03:39;;;;;;;2.42;0.82;;;14.40;71.40;;;;;;4975237;28;20023;-76
2021/11/06 10:06:07;;;;;;;0.63;0.63;;;14.30;69.30;;;;;;4975312;28;20122;-76
2021/11/06 10:08:38;;;;;;;0.15;0.15;;;14.60;68.40;;;;;;4975398;28;20479;-76
2021/11/06 10:11:09;;;;;;;2.63;1.90;;;14.80;66.50;;;;;;4974296;28;20034;-76
2021/11/06 10:13:54;;;;;;;0.53;0.53;;;14.30;66.40;;;;;;4975325;28;20034;-77
2021/11/06 10:16:39;;;;;;;0.10;0.10;;;14.40;66.10;;;;;;4975208;28;20034;-76
2021/11/06 10:19:13;;;;;;;0.10;0.10;;;15.30;62.90;;;;;;4975252;28;20031;-77
2021/11/06 10:21:42;;;;;;;0.10;0.10;;;16.00;59.80;;;;;;4972846;28;20093;-76
2021/11/06 10:24:08;;;;;;;0.17;0.17;;;15.90;57.40;;;;;;5006240;28;20030;-77
2021/11/06 10:26:34;;;;;;;0.90;0.90;;;15.80;58.30;;;;;;4957226;28;20549;-76
2021/11/06 10:29:15;;;;;;;2.65;0.55;;;15.80;58.10;;;;;;4973648;28;20075;-76
2021/11/06 10:31:53;;;;;;;1.85;1.30;;;16.00;57.60;;;;;;5005894;28;20488;-76
2021/11/06 10:34:20;;;;;;;0.50;0.50;;;16.10;57.40;;;;;;4975037;28;20023;-76
2021/11/06 10:36:57;;;;;;;0.30;0.30;;;16.20;57.50;;;;;;5005811;28;20383;-77
2021/11/06 10:39:22;;;;;;;0.20;0.20;;;16.60;56.20;;;;;;4974765;28;20102;-77
2021/11/06 10:41:48;;;;;;;0.70;0.70;;;16.80;56.00;;;;;;4973585;28;20033;-77
2021/11/06 10:44:19;;;;;;;0.75;0.75;;;17.00;55.30;;;;;;4973251;28;20107;-77
2021/11/06 10:46:54;;;;;;;2.63;0.55;;;17.40;54.70;;;;;;4957520;28;20023;-77
2021/11/06 10:49:35;;;;;;;0.32;0.32;;;17.40;54.10;;;;;;4974796;28;20030;-76
2021/11/06 10:52:04;;;;;;;0.30;0.30;;;16.90;55.40;;;;;;5005866;28;20037;-77
2021/11/06 10:54:31;;;;;;;0.35;0.30;;;17.00;55.30;;;;;;4973373;28;20023;-77
2021/11/06 10:56:58;;;;;;;0.65;0.65;;;17.50;54.60;;;;;;4974622;28;20027;-77
2021/11/06 10:59:25;;;;;;;1.98;1.17;;;17.60;54.80;;;;;;4959055;28;20066;-78
2021/11/06 11:01:56;;;;;;;1.35;0.98;;;17.40;53.40;;;;;;4979607;28;20023;-77
2021/11/06 11:04:24;;;;;;;1.10;0.35;;;17.20;55.30;;;;;;4973105;28;20109;-79
2021/11/06 11:06:53;;;;;;;0.52;0.50;;;17.60;53.90;;;;;;4974094;28;20019;-77
2021/11/06 11:09:21;;;;;;;2.85;1.05;;;17.30;53.40;;;;;;4979231;28;20042;-77
2021/11/06 11:11:53;;;;;;;2.00;0.93;;;17.40;53.20;;;;;;4972781;28;20085;-77
2021/11/06 11:14:23;;;;;;;0.65;0.40;;;17.50;52.60;;;;;;4956879;28;20106;-77
2021/11/06 11:16:58;;;;;;;0.13;0.13;;;17.80;52.30;;;;;;4972587;28;20467;-78
2021/11/06 11:19:50;;;;;;;0.20;0.20;;;17.90;52.40;;;;;;4974074;28;20034;-77
2021/11/06 11:22:29;;;;;;;0.47;0.47;;;18.50;51.00;;;;;;4953789;28;20042;-77
2021/11/06 11:24:56;;;;;;;0.40;0.40;;;18.70;50.00;;;;;;4972412;28;20433;-77
2021/11/06 11:27:22;;;;;;;0.57;0.40;;;18.60;50.30;;;;;;4973673;28;20541;-77
2021/11/06 11:29:48;;;;;;;3.85;0.77;;;19.00;50.70;;;;;;4988794;28;20026;-77
2021/11/06 11:32:16;;;;;;;1.02;0.60;;;18.80;49.40;;;;;;4973409;28;20106;-77
2021/11/06 11:34:44;;;;;;;3.38;0.77;;;18.20;51.20;;;;;;4973601;28;20081;-77
2021/11/06 11:37:11;;;;;;;0.10;0.10;;;17.90;52.70;;;;;;4972923;28;20109;-77
2021/11/06 11:39:37;;;;;;;6.97;2.22;;;18.00;52.00;;;;;;4973842;28;20023;-77
2021/11/06 11:42:24;;;;;;;2.58;2.38;;;17.20;52.50;;;;;;4972542;28;20119;-78
2021/11/06 11:45:06;;;;;;;1.90;1.65;;;17.20;53.60;;;;;;4977210;28;20066;-77
2021/11/06 11:47:38;;;;;;;1.03;1.03;;;17.00;53.90;;;;;;4976029;28;20072;-77
2021/11/06 11:50:10;;;;;;;0.10;0.10;;;16.80;54.60;;;;;;4975460;28;20109;-77
2021/11/06 11:52:41;;;;;;;0.30;0.30;;;17.10;54.90;;;;;;4993250;28;20022;-77
2021/11/06 11:55:18;;;;;;;0.40;0.40;;;17.80;53.60;;;;;;4993068;28;20030;-76
2021/11/06 11:57:50;;;;;;;0.47;0.47;;;17.60;53.50;;;;;;4992822;28;20018;-77
2021/11/06 12:00:19;;;;;;;0.90;0.77;;;18.00;53.50;;;;;;4992837;28;20057;-77
2021/11/06 12:03:12;;;;;;;0.28;0.20;;;18.20;52.10;;;;;;4991551;28;20097;-77
2021/11/06 12:05:37;;;;;;;1.30;0.65;;;17.70;52.70;;;;;;4988654;28;20030;-76
2021/11/06 12:08:09;;;;;;;1.38;1.27;;;17.20;53.60;;;;;;4992755;28;20245;-77
2021/11/06 12:10:37;;;;;;;0.75;0.45;;;16.70;54.60;;;;;;4991302;28;20042;-77
2021/11/06 12:13:04;;;;;;;1.35;1.25;;;17.10;54.20;;;;;;4991438;28;20031;-76
2021/11/06 12:16:09;;;;;;;0.65;0.60;;;17.00;53.20;;;;;;4991506;28;20062;-77
2021/11/06 12:18:34;;;;;;;0.25;0.25;;;17.20;52.90;;;;;;4991242;28;20234;-77
2021/11/06 12:21:16;;;;;;;1.48;0.98;;;17.70;52.40;;;;;;4991144;28;20026;-77
2021/11/06 12:23:51;;;;;;;0.10;0.10;;;17.80;51.70;;;;;;4982785;28;20029;-76
2021/11/06 12:26:44;;;;;;;3.75;1.23;;;17.50;52.20;;;;;;4957244;28;20038;-77
2021/11/06 12:29:09;;;;;;;;;;;17.50;52.50;;;;;;4962337;28;20034;-76
2021/11/06 12:31:49;;;;;;;2.38;0.93;;;17.10;51.50;;;;;;4977763;28;19979;-76
2021/11/06 12:34:41;;;;;;;0.40;0.40;;;17.10;52.30;;;;;;4990860;28;20534;-77
2021/11/06 12:37:09;;;;;;;1.08;1.02;;;17.20;52.70;;;;;;4975034;28;20038;-77
2021/11/06 12:40:03;;;;;;;0.20;0.20;;;17.80;51.50;;;;;;4981877;28;20046;-79
2021/11/06 12:42:29;;;;;;;0.22;0.22;;;18.20;50.40;;;;;;4962015;28;20520;-77
2021/11/06 12:45:06;;;;;;;1.23;1.00;;;17.60;51.10;;;;;;4957115;28;20023;-77
2021/11/06 12:47:35;;;;;;;1.65;1.30;;;17.70;51.00;;;;;;4980348;28;20023;-77
2021/11/06 12:50:18;;;;;;;0.10;0.10;;;17.70;50.90;;;;;;4961710;28;20030;-77
2021/11/06 12:52:44;;;;;;;0.25;0.25;;;17.70;51.80;;;;;;4996336;28;20022;-76
2021/11/06 12:55:10;;;;;;;0.40;0.35;;;17.50;51.50;;;;;;4968722;28;20027;-76
2021/11/06 12:57:42;;;;;;;8.18;3.67;;;17.50;52.00;;;;;;4993503;28;20036;-76